sensor_id;sensor_type;location;lat;lon;timestamp;P1;durP1;ratioP1;P2;durP2;ratioP2
15679;SDS011;15488;48.114;11.532;2023-07-08T00:00:41;10.23;;;6.57;;
15679;SDS011;15488;48.114;11.532;2023-07-08T00:03:10;9.10;;;6.37;;
15679;SDS011;15488;48.114;11.532;2023-07-08T00:05:38;12.80;;;9.13;;
15679;SDS011;15488;48.114;11.532;2023-07-08T00:08:08;12.37;;;9.27;;
15679;SDS011;15488;48.114;11.532;2023-07-08T00:10:37;11.17;;;7.70;;
15679;SDS011;15488;48.114;11.532;2023-07-08T00:13:05;14.73;;;9.63;;
15679;SDS011;15488;48.114;11.532;2023-07-08T00:15:34;9.87;;;6.63;;
15679;SDS011;15488;48.114;11.532;2023-07-08T00:18:08;9.33;;;6.40;;
15679;SDS011;15488;48.114;11.532;2023-07-08T00:20:39;11.13;;;9.00;;
15679;SDS011;15488;48.114;11.532;2023-07-08T00:23:09;9.07;;;6.73;;
15679;SDS011;15488;48.114;11.532;2023-07-08T00:25:37;10.07;;;7.03;;
15679;SDS011;15488;48.114;11.532;2023-07-08T00:28:07;7.87;;;5.57;;
15679;SDS011;15488;48.114;11.532;2023-07-08T00:30:36;8.53;;;6.30;;
15679;SDS011;15488;48.114;11.532;2023-07-08T00:33:05;8.93;;;6.13;;
15679;SDS011;15488;48.114;11.532;2023-07-08T00:35:34;12.60;;;9.53;;
15679;SDS011;15488;48.114;11.532;2023-07-08T00:38:08;13.07;;;9.87;;
15679;SDS011;15488;48.114;11.532;2023-07-08T00:40:47;13.23;;;9.83;;
15679;SDS011;15488;48.114;11.532;2023-07-08T00:43:17;9.33;;;7.00;;
15679;SDS011;15488;48.114;11.532;2023-07-08T00:45:49;10.87;;;6.70;;
15679;SDS011;15488;48.114;11.532;2023-07-08T00:48:23;8.33;;;6.33;;
15679;SDS011;15488;48.114;11.532;2023-07-08T00:50:57;9.13;;;6.10;;
15679;SDS011;15488;48.114;11.532;2023-07-08T00:53:26;11.53;;;6.80;;
15679;SDS011;15488;48.114;11.532;2023-07-08T00:55:56;8.03;;;6.30;;
15679;SDS011;15488;48.114;11.532;2023-07-08T00:58:33;8.83;;;6.50;;
15679;SDS011;15488;48.114;11.532;2023-07-08T01:01:03;7.90;;;5.63;;
15679;SDS011;15488;48.114;11.532;2023-07-08T01:03:33;8.20;;;6.20;;
15679;SDS011;15488;48.114;11.532;2023-07-08T01:06:06;7.87;;;6.00;;
15679;SDS011;15488;48.114;11.532;2023-07-08T01:08:33;7.60;;;5.80;;
15679;SDS011;15488;48.114;11.532;2023-07-08T01:11:02;8.07;;;6.07;;
15679;SDS011;15488;48.114;11.532;2023-07-08T01:13:33;8.53;;;6.20;;
15679;SDS011;15488;48.114;11.532;2023-07-08T01:16:05;9.13;;;6.43;;
15679;SDS011;15488;48.114;11.532;2023-07-08T01:18:33;9.10;;;6.20;;
15679;SDS011;15488;48.114;11.532;2023-07-08T01:21:02;7.37;;;5.87;;
15679;SDS011;15488;48.114;11.532;2023-07-08T01:23:53;8.47;;;6.10;;
15679;SDS011;15488;48.114;11.532;2023-07-08T01:26:22;8.00;;;6.13;;
15679;SDS011;15488;48.114;11.532;2023-07-08T01:28:51;8.10;;;6.33;;
15679;SDS011;15488;48.114;11.532;2023-07-08T01:31:19;8.17;;;5.73;;
15679;SDS011;15488;48.114;11.532;2023-07-08T01:33:49;8.50;;;6.03;;
15679;SDS011;15488;48.114;11.532;2023-07-08T01:36:17;9.47;;;6.33;;
15679;SDS011;15488;48.114;11.532;2023-07-08T01:38:45;8.07;;;6.17;;
15679;SDS011;15488;48.114;11.532;2023-07-08T01:41:14;7.87;;;6.17;;
15679;SDS011;15488;48.114;11.532;2023-07-08T01:43:42;9.63;;;6.57;;
15679;SDS011;15488;48.114;11.532;2023-07-08T01:46:11;7.30;;;5.70;;
15679;SDS011;15488;48.114;11.532;2023-07-08T01:48:42;7.60;;;6.23;;
15679;SDS011;15488;48.114;11.532;2023-07-08T01:51:14;9.90;;;6.73;;
15679;SDS011;15488;48.114;11.532;2023-07-08T01:53:42;7.87;;;6.47;;
15679;SDS011;15488;48.114;11.532;2023-07-08T01:56:10;7.20;;;5.80;;
15679;SDS011;15488;48.114;11.532;2023-07-08T01:58:40;8.13;;;5.93;;
15679;SDS011;15488;48.114;11.532;2023-07-08T02:01:08;7.77;;;6.20;;
15679;SDS011;15488;48.114;11.532;2023-07-08T02:03:36;9.20;;;6.20;;
15679;SDS011;15488;48.114;11.532;2023-07-08T02:06:04;8.97;;;6.20;;
15679;SDS011;15488;48.114;11.532;2023-07-08T02:08:35;7.37;;;5.73;;
15679;SDS011;15488;48.114;11.532;2023-07-08T02:11:02;8.17;;;6.40;;
15679;SDS011;15488;48.114;11.532;2023-07-08T02:13:31;8.73;;;6.10;;
15679;SDS011;15488;48.114;11.532;2023-07-08T02:15:58;8.17;;;6.07;;
15679;SDS011;15488;48.114;11.532;2023-07-08T02:18:26;8.27;;;5.97;;
15679;SDS011;15488;48.114;11.532;2023-07-08T02:20:57;8.90;;;6.10;;
15679;SDS011;15488;48.114;11.532;2023-07-08T02:23:25;7.83;;;5.97;;
15679;SDS011;15488;48.114;11.532;2023-07-08T02:25:52;9.20;;;6.00;;
15679;SDS011;15488;48.114;11.532;2023-07-08T02:28:21;7.97;;;5.70;;
15679;SDS011;15488;48.114;11.532;2023-07-08T02:30:50;7.93;;;6.43;;
15679;SDS011;15488;48.114;11.532;2023-07-08T02:33:18;8.33;;;6.17;;
15679;SDS011;15488;48.114;11.532;2023-07-08T02:35:46;8.47;;;6.20;;
15679;SDS011;15488;48.114;11.532;2023-07-08T02:38:13;8.30;;;6.60;;
15679;SDS011;15488;48.114;11.532;2023-07-08T02:40:40;8.27;;;6.10;;
15679;SDS011;15488;48.114;11.532;2023-07-08T02:43:08;9.30;;;6.17;;
15679;SDS011;15488;48.114;11.532;2023-07-08T02:45:36;10.07;;;6.57;;
15679;SDS011;15488;48.114;11.532;2023-07-08T02:48:06;8.30;;;6.23;;
15679;SDS011;15488;48.114;11.532;2023-07-08T02:50:34;7.17;;;5.70;;
15679;SDS011;15488;48.114;11.532;2023-07-08T02:53:01;8.40;;;6.23;;
15679;SDS011;15488;48.114;11.532;2023-07-08T02:55:29;8.93;;;6.60;;
15679;SDS011;15488;48.114;11.532;2023-07-08T02:57:56;10.20;;;6.60;;
15679;SDS011;15488;48.114;11.532;2023-07-08T03:00:24;7.90;;;5.93;;
15679;SDS011;15488;48.114;11.532;2023-07-08T03:02:51;9.40;;;6.13;;
15679;SDS011;15488;48.114;11.532;2023-07-08T03:05:20;9.53;;;6.27;;
15679;SDS011;15488;48.114;11.532;2023-07-08T03:07:48;7.23;;;5.90;;
15679;SDS011;15488;48.114;11.532;2023-07-08T03:10:15;8.73;;;6.10;;
15679;SDS011;15488;48.114;11.532;2023-07-08T03:12:43;9.17;;;6.20;;
15679;SDS011;15488;48.114;11.532;2023-07-08T03:15:10;7.60;;;6.30;;
15679;SDS011;15488;48.114;11.532;2023-07-08T03:17:38;8.53;;;6.30;;
15679;SDS011;15488;48.114;11.532;2023-07-08T03:20:06;9.63;;;6.43;;
15679;SDS011;15488;48.114;11.532;2023-07-08T03:22:36;7.50;;;5.90;;
15679;SDS011;15488;48.114;11.532;2023-07-08T03:25:04;11.37;;;7.43;;
15679;SDS011;15488;48.114;11.532;2023-07-08T03:27:32;9.10;;;5.87;;
15679;SDS011;15488;48.114;11.532;2023-07-08T03:30:00;10.73;;;7.27;;
15679;SDS011;15488;48.114;11.532;2023-07-08T03:32:29;9.00;;;6.57;;
15679;SDS011;15488;48.114;11.532;2023-07-08T03:34:56;8.40;;;5.83;;
15679;SDS011;15488;48.114;11.532;2023-07-08T03:37:26;7.77;;;6.17;;
15679;SDS011;15488;48.114;11.532;2023-07-08T03:39:55;9.77;;;6.53;;
15679;SDS011;15488;48.114;11.532;2023-07-08T03:42:22;7.60;;;5.60;;
15679;SDS011;15488;48.114;11.532;2023-07-08T03:44:50;9.33;;;6.53;;
15679;SDS011;15488;48.114;11.532;2023-07-08T03:47:17;9.23;;;6.70;;
15679;SDS011;15488;48.114;11.532;2023-07-08T03:49:45;9.60;;;6.40;;
15679;SDS011;15488;48.114;11.532;2023-07-08T03:52:14;8.70;;;6.37;;
15679;SDS011;15488;48.114;11.532;2023-07-08T03:54:43;8.73;;;6.43;;
15679;SDS011;15488;48.114;11.532;2023-07-08T03:57:14;8.33;;;6.27;;
15679;SDS011;15488;48.114;11.532;2023-07-08T03:59:41;7.47;;;5.90;;
15679;SDS011;15488;48.114;11.532;2023-07-08T04:02:09;8.93;;;6.43;;
15679;SDS011;15488;48.114;11.532;2023-07-08T04:04:37;7.73;;;6.27;;
15679;SDS011;15488;48.114;11.532;2023-07-08T04:07:05;9.47;;;6.30;;
15679;SDS011;15488;48.114;11.532;2023-07-08T04:09:33;8.70;;;6.60;;
15679;SDS011;15488;48.114;11.532;2023-07-08T04:12:01;8.10;;;6.17;;
15679;SDS011;15488;48.114;11.532;2023-07-08T04:14:31;8.93;;;6.30;;
15679;SDS011;15488;48.114;11.532;2023-07-08T04:16:58;11.40;;;6.23;;
15679;SDS011;15488;48.114;11.532;2023-07-08T04:19:26;8.53;;;6.07;;
15679;SDS011;15488;48.114;11.532;2023-07-08T04:21:53;7.80;;;5.67;;
15679;SDS011;15488;48.114;11.532;2023-07-08T04:24:21;8.73;;;5.93;;
15679;SDS011;15488;48.114;11.532;2023-07-08T04:26:49;7.93;;;5.73;;
15679;SDS011;15488;48.114;11.532;2023-07-08T04:29:18;8.07;;;6.03;;
15679;SDS011;15488;48.114;11.532;2023-07-08T04:31:48;9.87;;;6.40;;
15679;SDS011;15488;48.114;11.532;2023-07-08T04:34:15;10.40;;;6.63;;
15679;SDS011;15488;48.114;11.532;2023-07-08T04:36:44;7.60;;;5.93;;
15679;SDS011;15488;48.114;11.532;2023-07-08T04:39:12;7.70;;;5.43;;
15679;SDS011;15488;48.114;11.532;2023-07-08T04:41:40;7.67;;;5.83;;
15679;SDS011;15488;48.114;11.532;2023-07-08T04:44:09;9.47;;;6.27;;
15679;SDS011;15488;48.114;11.532;2023-07-08T04:46:37;10.10;;;6.53;;
15679;SDS011;15488;48.114;11.532;2023-07-08T04:49:08;8.20;;;5.90;;
15679;SDS011;15488;48.114;11.532;2023-07-08T04:51:36;8.80;;;6.13;;
15679;SDS011;15488;48.114;11.532;2023-07-08T04:54:06;10.47;;;5.90;;
15679;SDS011;15488;48.114;11.532;2023-07-08T04:56:35;8.30;;;6.10;;
15679;SDS011;15488;48.114;11.532;2023-07-08T04:59:04;8.57;;;6.07;;
15679;SDS011;15488;48.114;11.532;2023-07-08T05:01:32;8.97;;;6.43;;
15679;SDS011;15488;48.114;11.532;2023-07-08T05:03:59;10.37;;;6.67;;
15679;SDS011;15488;48.114;11.532;2023-07-08T05:06:28;8.03;;;5.90;;
15679;SDS011;15488;48.114;11.532;2023-07-08T05:08:56;7.77;;;5.90;;
15679;SDS011;15488;48.114;11.532;2023-07-08T05:11:24;8.30;;;6.10;;
15679;SDS011;15488;48.114;11.532;2023-07-08T05:13:51;8.80;;;5.90;;
15679;SDS011;15488;48.114;11.532;2023-07-08T05:16:19;8.07;;;6.23;;
15679;SDS011;15488;48.114;11.532;2023-07-08T05:18:46;9.57;;;6.07;;
15679;SDS011;15488;48.114;11.532;2023-07-08T05:21:14;8.07;;;5.80;;
15679;SDS011;15488;48.114;11.532;2023-07-08T05:23:45;9.67;;;6.53;;
15679;SDS011;15488;48.114;11.532;2023-07-08T05:26:14;8.70;;;6.37;;
15679;SDS011;15488;48.114;11.532;2023-07-08T05:28:42;9.17;;;6.30;;
15679;SDS011;15488;48.114;11.532;2023-07-08T05:31:10;9.20;;;6.33;;
15679;SDS011;15488;48.114;11.532;2023-07-08T05:33:38;9.83;;;6.70;;
15679;SDS011;15488;48.114;11.532;2023-07-08T05:36:05;9.10;;;7.07;;
15679;SDS011;15488;48.114;11.532;2023-07-08T05:38:33;8.53;;;6.60;;
15679;SDS011;15488;48.114;11.532;2023-07-08T05:41:01;10.80;;;6.47;;
15679;SDS011;15488;48.114;11.532;2023-07-08T05:43:29;8.40;;;6.20;;
15679;SDS011;15488;48.114;11.532;2023-07-08T05:45:57;9.90;;;6.97;;
15679;SDS011;15488;48.114;11.532;2023-07-08T05:48:25;8.50;;;6.57;;
15679;SDS011;15488;48.114;11.532;2023-07-08T05:50:52;8.57;;;6.50;;
15679;SDS011;15488;48.114;11.532;2023-07-08T05:53:20;9.83;;;6.60;;
15679;SDS011;15488;48.114;11.532;2023-07-08T05:55:47;9.83;;;6.70;;
15679;SDS011;15488;48.114;11.532;2023-07-08T05:58:18;8.40;;;6.57;;
15679;SDS011;15488;48.114;11.532;2023-07-08T06:00:45;11.73;;;6.90;;
15679;SDS011;15488;48.114;11.532;2023-07-08T06:03:13;8.40;;;6.50;;
15679;SDS011;15488;48.114;11.532;2023-07-08T06:05:40;9.93;;;6.60;;
15679;SDS011;15488;48.114;11.532;2023-07-08T06:08:09;9.27;;;6.57;;
15679;SDS011;15488;48.114;11.532;2023-07-08T06:10:41;9.53;;;6.13;;
15679;SDS011;15488;48.114;11.532;2023-07-08T06:13:09;8.63;;;6.43;;
15679;SDS011;15488;48.114;11.532;2023-07-08T06:15:38;8.80;;;6.53;;
15679;SDS011;15488;48.114;11.532;2023-07-08T06:18:07;9.40;;;5.97;;
15679;SDS011;15488;48.114;11.532;2023-07-08T06:20:34;8.77;;;6.40;;
15679;SDS011;15488;48.114;11.532;2023-07-08T06:23:02;8.97;;;5.73;;
15679;SDS011;15488;48.114;11.532;2023-07-08T06:25:29;8.17;;;6.27;;
15679;SDS011;15488;48.114;11.532;2023-07-08T06:27:57;10.50;;;8.10;;
15679;SDS011;15488;48.114;11.532;2023-07-08T06:30:25;9.00;;;6.53;;
15679;SDS011;15488;48.114;11.532;2023-07-08T06:32:53;12.00;;;6.70;;
15679;SDS011;15488;48.114;11.532;2023-07-08T06:35:21;9.53;;;6.13;;
15679;SDS011;15488;48.114;11.532;2023-07-08T06:37:48;7.53;;;6.40;;
15679;SDS011;15488;48.114;11.532;2023-07-08T06:40:16;8.17;;;6.07;;
15679;SDS011;15488;48.114;11.532;2023-07-08T06:42:44;11.03;;;6.73;;
15679;SDS011;15488;48.114;11.532;2023-07-08T06:45:12;8.43;;;6.37;;
15679;SDS011;15488;48.114;11.532;2023-07-08T06:47:39;8.13;;;6.43;;
15679;SDS011;15488;48.114;11.532;2023-07-08T06:50:09;9.67;;;6.33;;
15679;SDS011;15488;48.114;11.532;2023-07-08T06:52:36;8.23;;;6.27;;
15679;SDS011;15488;48.114;11.532;2023-07-08T06:55:05;10.23;;;6.03;;
15679;SDS011;15488;48.114;11.532;2023-07-08T06:57:34;7.83;;;6.27;;
15679;SDS011;15488;48.114;11.532;2023-07-08T07:00:03;11.87;;;6.53;;
15679;SDS011;15488;48.114;11.532;2023-07-08T07:02:32;9.37;;;6.47;;
15679;SDS011;15488;48.114;11.532;2023-07-08T07:05:00;7.50;;;6.10;;
15679;SDS011;15488;48.114;11.532;2023-07-08T07:07:29;9.40;;;6.53;;
15679;SDS011;15488;48.114;11.532;2023-07-08T07:09:56;8.17;;;6.17;;
15679;SDS011;15488;48.114;11.532;2023-07-08T07:12:24;9.83;;;6.40;;
15679;SDS011;15488;48.114;11.532;2023-07-08T07:14:52;7.30;;;6.07;;
15679;SDS011;15488;48.114;11.532;2023-07-08T07:17:20;8.30;;;6.53;;
15679;SDS011;15488;48.114;11.532;2023-07-08T07:19:48;9.43;;;6.50;;
15679;SDS011;15488;48.114;11.532;2023-07-08T07:22:16;8.50;;;6.17;;
15679;SDS011;15488;48.114;11.532;2023-07-08T07:24:44;8.40;;;6.70;;
15679;SDS011;15488;48.114;11.532;2023-07-08T07:27:12;7.50;;;6.10;;
15679;SDS011;15488;48.114;11.532;2023-07-08T07:29:44;13.10;;;11.27;;
15679;SDS011;15488;48.114;11.532;2023-07-08T07:32:14;11.30;;;8.10;;
15679;SDS011;15488;48.114;11.532;2023-07-08T07:34:42;10.23;;;6.80;;
15679;SDS011;15488;48.114;11.532;2023-07-08T07:37:12;8.23;;;6.03;;
15679;SDS011;15488;48.114;11.532;2023-07-08T07:39:41;8.70;;;6.10;;
15679;SDS011;15488;48.114;11.532;2023-07-08T07:42:10;8.53;;;6.00;;
15679;SDS011;15488;48.114;11.532;2023-07-08T07:44:39;7.30;;;5.90;;
15679;SDS011;15488;48.114;11.532;2023-07-08T07:47:07;8.33;;;6.60;;
15679;SDS011;15488;48.114;11.532;2023-07-08T07:49:35;8.77;;;6.27;;
15679;SDS011;15488;48.114;11.532;2023-07-08T07:52:03;7.93;;;6.20;;
15679;SDS011;15488;48.114;11.532;2023-07-08T07:54:32;8.17;;;6.10;;
15679;SDS011;15488;48.114;11.532;2023-07-08T07:56:59;8.13;;;6.27;;
15679;SDS011;15488;48.114;11.532;2023-07-08T07:59:28;9.33;;;6.70;;
15679;SDS011;15488;48.114;11.532;2023-07-08T08:01:55;8.87;;;6.30;;
15679;SDS011;15488;48.114;11.532;2023-07-08T08:04:23;8.03;;;6.67;;
15679;SDS011;15488;48.114;11.532;2023-07-08T08:06:50;8.90;;;6.50;;
15679;SDS011;15488;48.114;11.532;2023-07-08T08:09:17;8.57;;;6.37;;
15679;SDS011;15488;48.114;11.532;2023-07-08T08:11:45;8.20;;;6.20;;
15679;SDS011;15488;48.114;11.532;2023-07-08T08:14:13;9.63;;;6.57;;
15679;SDS011;15488;48.114;11.532;2023-07-08T08:16:42;7.67;;;6.03;;
15679;SDS011;15488;48.114;11.532;2023-07-08T08:19:09;9.90;;;6.97;;
15679;SDS011;15488;48.114;11.532;2023-07-08T08:21:37;8.90;;;6.70;;
15679;SDS011;15488;48.114;11.532;2023-07-08T08:24:04;7.43;;;6.47;;
15679;SDS011;15488;48.114;11.532;2023-07-08T08:26:32;8.03;;;6.27;;
15679;SDS011;15488;48.114;11.532;2023-07-08T08:29:00;11.03;;;7.50;;
15679;SDS011;15488;48.114;11.532;2023-07-08T08:31:28;8.90;;;6.30;;
15679;SDS011;15488;48.114;11.532;2023-07-08T08:33:57;10.63;;;6.18;;
15679;SDS011;15488;48.114;11.532;2023-07-08T08:36:25;9.63;;;6.80;;
15679;SDS011;15488;48.114;11.532;2023-07-08T08:38:52;9.07;;;7.00;;
15679;SDS011;15488;48.114;11.532;2023-07-08T08:41:21;9.97;;;7.03;;
15679;SDS011;15488;48.114;11.532;2023-07-08T08:43:55;7.97;;;6.63;;
15679;SDS011;15488;48.114;11.532;2023-07-08T08:46:24;8.40;;;6.13;;
15679;SDS011;15488;48.114;11.532;2023-07-08T08:49:01;8.38;;;6.47;;
15679;SDS011;15488;48.114;11.532;2023-07-08T08:51:33;6.73;;;5.80;;
15679;SDS011;15488;48.114;11.532;2023-07-08T08:54:01;7.80;;;6.05;;
15679;SDS011;15488;48.114;11.532;2023-07-08T08:56:29;8.40;;;6.18;;
15679;SDS011;15488;48.114;11.532;2023-07-08T08:59:04;7.88;;;6.13;;
15679;SDS011;15488;48.114;11.532;2023-07-08T09:01:38;9.98;;;6.65;;
15679;SDS011;15488;48.114;11.532;2023-07-08T09:04:08;7.35;;;6.07;;
15679;SDS011;15488;48.114;11.532;2023-07-08T09:06:40;7.25;;;6.00;;
15679;SDS011;15488;48.114;11.532;2023-07-08T09:09:09;8.50;;;6.20;;
15679;SDS011;15488;48.114;11.532;2023-07-08T09:11:45;8.65;;;6.53;;
15679;SDS011;15488;48.114;11.532;2023-07-08T09:14:19;6.38;;;5.72;;
15679;SDS011;15488;48.114;11.532;2023-07-08T09:16:51;8.98;;;6.72;;
15679;SDS011;15488;48.114;11.532;2023-07-08T09:19:26;12.52;;;6.25;;
15679;SDS011;15488;48.114;11.532;2023-07-08T09:21:59;9.23;;;7.32;;
15679;SDS011;15488;48.114;11.532;2023-07-08T09:24:33;7.95;;;6.63;;
15679;SDS011;15488;48.114;11.532;2023-07-08T09:27:04;9.07;;;6.15;;
15679;SDS011;15488;48.114;11.532;2023-07-08T09:29:32;9.05;;;6.00;;
15679;SDS011;15488;48.114;11.532;2023-07-08T09:32:01;7.05;;;6.30;;
15679;SDS011;15488;48.114;11.532;2023-07-08T09:34:43;8.65;;;6.30;;
15679;SDS011;15488;48.114;11.532;2023-07-08T09:39:59;8.67;;;6.17;;
15679;SDS011;15488;48.114;11.532;2023-07-08T09:42:31;7.15;;;5.72;;
15679;SDS011;15488;48.114;11.532;2023-07-08T09:45:00;7.38;;;5.85;;
15679;SDS011;15488;48.114;11.532;2023-07-08T09:47:32;7.28;;;6.43;;
15679;SDS011;15488;48.114;11.532;2023-07-08T09:50:06;8.05;;;5.70;;
15679;SDS011;15488;48.114;11.532;2023-07-08T09:52:44;9.82;;;6.10;;
15679;SDS011;15488;48.114;11.532;2023-07-08T09:55:13;6.78;;;5.57;;
15679;SDS011;15488;48.114;11.532;2023-07-08T09:57:41;7.15;;;5.75;;
15679;SDS011;15488;48.114;11.532;2023-07-08T10:00:13;8.45;;;5.97;;
15679;SDS011;15488;48.114;11.532;2023-07-08T10:02:43;6.47;;;5.88;;
15679;SDS011;15488;48.114;11.532;2023-07-08T10:05:16;6.90;;;5.72;;
15679;SDS011;15488;48.114;11.532;2023-07-08T10:07:46;7.22;;;5.53;;
15679;SDS011;15488;48.114;11.532;2023-07-08T10:10:15;5.70;;;5.03;;
15679;SDS011;15488;48.114;11.532;2023-07-08T10:12:47;7.32;;;5.45;;
15679;SDS011;15488;48.114;11.532;2023-07-08T10:15:22;6.18;;;5.18;;
15679;SDS011;15488;48.114;11.532;2023-07-08T10:17:54;6.82;;;4.57;;
15679;SDS011;15488;48.114;11.532;2023-07-08T10:20:24;6.43;;;4.68;;
15679;SDS011;15488;48.114;11.532;2023-07-08T10:23:01;5.93;;;4.68;;
15679;SDS011;15488;48.114;11.532;2023-07-08T10:25:40;6.95;;;5.30;;
15679;SDS011;15488;48.114;11.532;2023-07-08T10:28:21;5.30;;;4.40;;
15679;SDS011;15488;48.114;11.532;2023-07-08T10:30:58;6.78;;;4.90;;
15679;SDS011;15488;48.114;11.532;2023-07-08T10:33:40;8.18;;;5.22;;
15679;SDS011;15488;48.114;11.532;2023-07-08T10:36:25;7.07;;;4.95;;
15679;SDS011;15488;48.114;11.532;2023-07-08T10:39:20;6.45;;;4.40;;
15679;SDS011;15488;48.114;11.532;2023-07-08T10:42:03;5.82;;;4.60;;
15679;SDS011;15488;48.114;11.532;2023-07-08T10:44:43;8.07;;;4.65;;
15679;SDS011;15488;48.114;11.532;2023-07-08T10:47:22;7.47;;;4.53;;
15679;SDS011;15488;48.114;11.532;2023-07-08T10:50:07;5.30;;;4.40;;
15679;SDS011;15488;48.114;11.532;2023-07-08T10:52:53;6.05;;;4.53;;
15679;SDS011;15488;48.114;11.532;2023-07-08T10:55:42;5.80;;;5.05;;
15679;SDS011;15488;48.114;11.532;2023-07-08T10:58:25;5.65;;;4.35;;
15679;SDS011;15488;48.114;11.532;2023-07-08T11:01:14;6.30;;;4.72;;
15679;SDS011;15488;48.114;11.532;2023-07-08T11:03:59;7.05;;;4.93;;
15679;SDS011;15488;48.114;11.532;2023-07-08T11:06:55;6.50;;;4.78;;
15679;SDS011;15488;48.114;11.532;2023-07-08T11:09:27;6.43;;;5.28;;
15679;SDS011;15488;48.114;11.532;2023-07-08T11:12:01;9.00;;;5.60;;
15679;SDS011;15488;48.114;11.532;2023-07-08T11:14:46;6.43;;;5.38;;
15679;SDS011;15488;48.114;11.532;2023-07-08T11:17:22;5.88;;;5.00;;
15679;SDS011;15488;48.114;11.532;2023-07-08T11:20:00;7.45;;;4.97;;
15679;SDS011;15488;48.114;11.532;2023-07-08T11:22:39;5.78;;;4.60;;
15679;SDS011;15488;48.114;11.532;2023-07-08T11:25:18;5.75;;;5.15;;
15679;SDS011;15488;48.114;11.532;2023-07-08T11:27:51;5.93;;;5.18;;
15679;SDS011;15488;48.114;11.532;2023-07-08T11:30:23;6.88;;;4.90;;
15679;SDS011;15488;48.114;11.532;2023-07-08T11:32:54;5.97;;;5.05;;
15679;SDS011;15488;48.114;11.532;2023-07-08T11:35:34;10.30;;;5.35;;
15679;SDS011;15488;48.114;11.532;2023-07-08T11:38:06;5.90;;;5.25;;
15679;SDS011;15488;48.114;11.532;2023-07-08T11:40:50;10.38;;;7.13;;
15679;SDS011;15488;48.114;11.532;2023-07-08T11:43:20;6.63;;;5.60;;
15679;SDS011;15488;48.114;11.532;2023-07-08T11:45:50;12.60;;;7.80;;
15679;SDS011;15488;48.114;11.532;2023-07-08T11:48:22;9.10;;;7.30;;
15679;SDS011;15488;48.114;11.532;2023-07-08T11:50:53;7.05;;;6.30;;
15679;SDS011;15488;48.114;11.532;2023-07-08T11:53:34;6.38;;;5.55;;
15679;SDS011;15488;48.114;11.532;2023-07-08T11:56:05;6.28;;;5.53;;
15679;SDS011;15488;48.114;11.532;2023-07-08T11:58:50;6.63;;;5.53;;
15679;SDS011;15488;48.114;11.532;2023-07-08T12:01:26;5.80;;;5.20;;
15679;SDS011;15488;48.114;11.532;2023-07-08T12:03:58;6.80;;;5.10;;
15679;SDS011;15488;48.114;11.532;2023-07-08T12:06:42;5.78;;;5.10;;
15679;SDS011;15488;48.114;11.532;2023-07-08T12:09:14;7.45;;;5.22;;
15679;SDS011;15488;48.114;11.532;2023-07-08T12:11:52;6.63;;;5.13;;
15679;SDS011;15488;48.114;11.532;2023-07-08T12:14:23;6.05;;;5.35;;
15679;SDS011;15488;48.114;11.532;2023-07-08T12:16:54;6.35;;;5.72;;
15679;SDS011;15488;48.114;11.532;2023-07-08T12:19:22;6.22;;;5.60;;
15679;SDS011;15488;48.114;11.532;2023-07-08T12:21:54;6.18;;;5.55;;
15679;SDS011;15488;48.114;11.532;2023-07-08T12:24:21;6.28;;;5.20;;
15679;SDS011;15488;48.114;11.532;2023-07-08T12:26:53;6.78;;;5.65;;
15679;SDS011;15488;48.114;11.532;2023-07-08T12:29:21;6.38;;;5.30;;
15679;SDS011;15488;48.114;11.532;2023-07-08T12:31:48;6.78;;;6.07;;
15679;SDS011;15488;48.114;11.532;2023-07-08T12:34:16;5.90;;;5.30;;
15679;SDS011;15488;48.114;11.532;2023-07-08T12:36:44;6.85;;;5.82;;
15679;SDS011;15488;48.114;11.532;2023-07-08T12:39:14;6.03;;;5.43;;
15679;SDS011;15488;48.114;11.532;2023-07-08T12:41:43;5.97;;;5.38;;
15679;SDS011;15488;48.114;11.532;2023-07-08T12:44:18;6.57;;;5.97;;
15679;SDS011;15488;48.114;11.532;2023-07-08T12:46:47;5.63;;;4.97;;
15679;SDS011;15488;48.114;11.532;2023-07-08T12:49:17;7.22;;;5.72;;
15679;SDS011;15488;48.114;11.532;2023-07-08T12:51:45;6.07;;;5.47;;
15679;SDS011;15488;48.114;11.532;2023-07-08T12:54:14;6.75;;;5.65;;
15679;SDS011;15488;48.114;11.532;2023-07-08T12:56:42;6.05;;;5.10;;
15679;SDS011;15488;48.114;11.532;2023-07-08T12:59:12;5.40;;;4.90;;
15679;SDS011;15488;48.114;11.532;2023-07-08T13:01:44;5.90;;;5.32;;
15679;SDS011;15488;48.114;11.532;2023-07-08T13:04:13;5.78;;;5.18;;
15679;SDS011;15488;48.114;11.532;2023-07-08T13:06:42;5.95;;;5.35;;
15679;SDS011;15488;48.114;11.532;2023-07-08T13:09:17;5.38;;;4.88;;
15679;SDS011;15488;48.114;11.532;2023-07-08T13:12:10;6.40;;;5.80;;
15679;SDS011;15488;48.114;11.532;2023-07-08T13:14:43;6.28;;;5.30;;
15679;SDS011;15488;48.114;11.532;2023-07-08T13:17:12;5.30;;;4.80;;
15679;SDS011;15488;48.114;11.532;2023-07-08T13:19:40;5.70;;;4.78;;
15679;SDS011;15488;48.114;11.532;2023-07-08T13:22:10;5.78;;;5.18;;
15679;SDS011;15488;48.114;11.532;2023-07-08T13:24:41;6.75;;;5.70;;
15679;SDS011;15488;48.114;11.532;2023-07-08T13:27:20;5.90;;;5.40;;
15679;SDS011;15488;48.114;11.532;2023-07-08T13:29:51;6.70;;;5.63;;
15679;SDS011;15488;48.114;11.532;2023-07-08T13:32:19;8.00;;;5.85;;
15679;SDS011;15488;48.114;11.532;2023-07-08T13:34:55;5.97;;;5.05;;
15679;SDS011;15488;48.114;11.532;2023-07-08T13:37:22;6.63;;;5.85;;
15679;SDS011;15488;48.114;11.532;2023-07-08T13:39:51;5.45;;;4.95;;
15679;SDS011;15488;48.114;11.532;2023-07-08T13:42:20;5.80;;;5.20;;
15679;SDS011;15488;48.114;11.532;2023-07-08T13:44:47;5.72;;;5.22;;
15679;SDS011;15488;48.114;11.532;2023-07-08T13:47:21;6.75;;;5.13;;
15679;SDS011;15488;48.114;11.532;2023-07-08T13:49:53;6.05;;;5.45;;
15679;SDS011;15488;48.114;11.532;2023-07-08T13:52:24;7.07;;;6.47;;
15679;SDS011;15488;48.114;11.532;2023-07-08T13:54:53;8.25;;;7.60;;
15679;SDS011;15488;48.114;11.532;2023-07-08T13:57:28;7.35;;;6.70;;
15679;SDS011;15488;48.114;11.532;2023-07-08T13:59:58;8.75;;;8.07;;
15679;SDS011;15488;48.114;11.532;2023-07-08T14:02:28;10.00;;;9.30;;
15679;SDS011;15488;48.114;11.532;2023-07-08T14:04:58;8.70;;;8.10;;
15679;SDS011;15488;48.114;11.532;2023-07-08T14:07:33;10.35;;;9.55;;
15679;SDS011;15488;48.114;11.532;2023-07-08T14:10:03;11.23;;;10.32;;
15679;SDS011;15488;48.114;11.532;2023-07-08T14:12:35;8.15;;;7.60;;
15679;SDS011;15488;48.114;11.532;2023-07-08T14:15:03;7.68;;;7.15;;
15679;SDS011;15488;48.114;11.532;2023-07-08T14:17:32;6.90;;;6.40;;
15679;SDS011;15488;48.114;11.532;2023-07-08T14:20:00;5.78;;;5.15;;
15679;SDS011;15488;48.114;11.532;2023-07-08T14:22:28;5.43;;;4.93;;
15679;SDS011;15488;48.114;11.532;2023-07-08T14:24:56;5.35;;;4.95;;
15679;SDS011;15488;48.114;11.532;2023-07-08T14:27:28;5.60;;;5.10;;
15679;SDS011;15488;48.114;11.532;2023-07-08T14:29:55;6.82;;;6.22;;
15679;SDS011;15488;48.114;11.532;2023-07-08T14:32:23;9.82;;;8.82;;
15679;SDS011;15488;48.114;11.532;2023-07-08T14:34:56;7.35;;;6.68;;
15679;SDS011;15488;48.114;11.532;2023-07-08T14:37:25;5.93;;;4.97;;
15679;SDS011;15488;48.114;11.532;2023-07-08T14:39:53;6.10;;;5.38;;
15679;SDS011;15488;48.114;11.532;2023-07-08T14:42:20;6.60;;;5.40;;
15679;SDS011;15488;48.114;11.532;2023-07-08T14:44:48;9.15;;;5.15;;
15679;SDS011;15488;48.114;11.532;2023-07-08T14:47:18;5.70;;;4.75;;
15679;SDS011;15488;48.114;11.532;2023-07-08T14:49:46;5.05;;;4.55;;
15679;SDS011;15488;48.114;11.532;2023-07-08T14:52:16;5.22;;;4.72;;
15679;SDS011;15488;48.114;11.532;2023-07-08T14:54:44;5.35;;;4.40;;